Time;durP1;ratioP1;P1;durP2;ratioP2;P2;SDS_P1;SDS_P2;PMS_P1;PMS_P2;Temp;Humidity;BMP_temperature;BMP_pressure;BME280_temperature;BME280_humidity;BME280_pressure;Samples;Min_cycle;Max_cycle;Signal;HPM_P1;HPM_P2
2023/11/04 00:00:58;;;;;;;4.13;3.83;;;;;;;;;;2609794;47;20463;-73
2023/11/04 00:03:24;;;;;;;3.70;3.40;;;;;;;;;;2608168;54;20427;-74
2023/11/04 00:05:50;;;;;;;4.30;4.00;;;;;;;;;;2607000;50;20496;-74
2023/11/04 00:08:16;;;;;;;4.33;4.03;;;;;;;;;;2607471;54;20569;-74
2023/11/04 00:10:43;;;;;;;6.97;4.63;;;;;;;;;;2608536;54;20431;-74
2023/11/04 00:13:09;;;;;;;5.63;4.30;;;;;;;;;;2607064;39;20824;-74
2023/11/04 00:15:36;;;;;;;4.50;4.20;;;;;;;;;;2607740;54;20415;-74
2023/11/04 00:18:02;;;;;;;4.47;4.07;;;;;;;;;;2607540;54;20525;-73
2023/11/04 00:20:28;;;;;;;12.30;4.20;;;;;;;;;;2607229;54;20514;-74
2023/11/04 00:22:54;;;;;;;5.40;4.73;;;;;;;;;;2606971;54;20428;-74
2023/11/04 00:25:20;;;;;;;5.80;4.47;;;;;;;;;;2606518;47;20455;-74
2023/11/04 00:27:47;;;;;;;4.23;3.93;;;;;;;;;;2608773;47;20465;-73
2023/11/04 00:30:13;;;;;;;9.03;4.23;;;;;;;;;;2608003;54;21046;-75
2023/11/04 00:32:39;;;;;;;4.27;3.97;;;;;;;;;;2609615;54;20400;-74
2023/11/04 00:35:05;;;;;;;4.73;3.60;;;;;;;;;;2608216;54;20400;-75
2023/11/04 00:37:32;;;;;;;4.50;4.10;;;;;;;;;;2609873;39;20889;-75
2023/11/04 00:40:00;;;;;;;4.30;4.00;;;;;;;;;;2607221;47;21028;-75
2023/11/04 00:42:26;;;;;;;4.27;3.97;;;;;;;;;;2609597;54;21032;-75
2023/11/04 00:44:52;;;;;;;7.83;4.87;;;;;;;;;;2607546;46;20446;-74
2023/11/04 00:47:19;;;;;;;4.83;4.30;;;;;;;;;;2607655;54;20419;-73
2023/11/04 00:49:45;;;;;;;4.30;4.00;;;;;;;;;;2607892;54;21058;-74
2023/11/04 00:52:11;;;;;;;10.13;4.50;;;;;;;;;;2607631;54;20422;-75
2023/11/04 00:54:41;;;;;;;4.43;3.87;;;;;;;;;;2608672;54;20456;-73
2023/11/04 00:57:07;;;;;;;4.30;4.00;;;;;;;;;;2606762;54;20411;-73
2023/11/04 00:59:33;;;;;;;4.40;4.10;;;;;;;;;;2609521;39;20852;-73
2023/11/04 01:01:59;;;;;;;4.63;4.30;;;;;;;;;;2608001;54;21081;-75
2023/11/04 01:04:26;;;;;;;5.53;4.03;;;;;;;;;;2609410;39;20926;-73
2023/11/04 01:06:52;;;;;;;4.50;4.10;;;;;;;;;;2609846;54;20431;-74
2023/11/04 01:09:18;;;;;;;4.13;3.83;;;;;;;;;;2608400;54;20422;-73
2023/11/04 01:11:44;;;;;;;4.97;4.20;;;;;;;;;;2606976;39;21049;-73
2023/11/04 01:14:10;;;;;;;4.13;3.83;;;;;;;;;;2609028;54;20469;-72
2023/11/04 01:16:37;;;;;;;4.30;4.00;;;;;;;;;;2607579;54;20392;-72
2023/11/04 01:19:03;;;;;;;4.33;4.03;;;;;;;;;;2607765;47;20428;-72
2023/11/04 01:21:29;;;;;;;6.23;3.77;;;;;;;;;;2608523;54;20420;-73
2023/11/04 01:23:55;;;;;;;4.20;3.93;;;;;;;;;;2607873;46;20420;-73
2023/11/04 01:26:21;;;;;;;4.00;3.80;;;;;;;;;;2607035;54;20400;-75
2023/11/04 01:28:47;;;;;;;4.20;3.90;;;;;;;;;;2608445;54;20407;-73
2023/11/04 01:31:13;;;;;;;4.10;3.90;;;;;;;;;;2608312;54;20422;-74
2023/11/04 01:33:39;;;;;;;3.90;3.70;;;;;;;;;;2608234;54;20415;-73
2023/11/04 01:36:05;;;;;;;4.30;4.00;;;;;;;;;;2608059;54;20408;-71
2023/11/04 01:38:31;;;;;;;3.60;3.40;;;;;;;;;;2607777;54;20511;-73
2023/11/04 01:40:57;;;;;;;3.67;3.37;;;;;;;;;;2607772;54;21001;-71
2023/11/04 01:43:27;;;;;;;3.63;3.43;;;;;;;;;;2607587;47;20411;-73
2023/11/04 01:46:12;;;;;;;6.87;4.07;;;;;;;;;;2608926;54;21036;-72
2023/11/04 01:48:39;;;;;;;4.60;4.20;;;;;;;;;;2609690;39;21190;-72
2023/11/04 01:51:05;;;;;;;4.60;3.53;;;;;;;;;;2608972;54;20440;-73
2023/11/04 01:53:32;;;;;;;4.03;3.83;;;;;;;;;;2607590;47;20546;-73
2023/11/04 01:56:00;;;;;;;5.83;3.63;;;;;;;;;;2607517;39;20762;-72
2023/11/04 01:58:27;;;;;;;3.70;3.50;;;;;;;;;;2608173;54;20523;-72
2023/11/04 02:00:53;;;;;;;3.37;3.17;;;;;;;;;;2607675;47;20455;-75
2023/11/04 02:03:19;;;;;;;4.50;3.73;;;;;;;;;;2606554;54;20450;-77
2023/11/04 02:05:45;;;;;;;3.67;3.47;;;;;;;;;;2607428;54;20460;-75
2023/11/04 02:08:12;;;;;;;4.00;3.77;;;;;;;;;;2606715;54;20431;-74
2023/11/04 02:10:38;;;;;;;4.10;3.80;;;;;;;;;;2607401;54;20419;-75
2023/11/04 02:13:04;;;;;;;3.73;3.53;;;;;;;;;;2606306;54;20407;-74
2023/11/04 02:15:30;;;;;;;4.07;3.77;;;;;;;;;;2607346;54;20404;-75
2023/11/04 02:17:56;;;;;;;4.17;3.77;;;;;;;;;;2606267;54;20475;-75
2023/11/04 02:20:25;;;;;;;3.50;3.30;;;;;;;;;;2607345;54;20430;-74
2023/11/04 02:22:51;;;;;;;4.13;3.80;;;;;;;;;;2607107;51;20450;-74
2023/11/04 02:25:18;;;;;;;4.20;3.80;;;;;;;;;;2606714;47;20444;-75
2023/11/04 02:27:44;;;;;;;3.97;3.77;;;;;;;;;;2606235;54;20543;-75
2023/11/04 02:30:13;;;;;;;3.97;3.77;;;;;;;;;;2608250;50;20654;-77
2023/11/04 02:32:39;;;;;;;4.30;4.00;;;;;;;;;;2607937;54;20974;-76
2023/11/04 02:35:06;;;;;;;4.70;4.30;;;;;;;;;;2609638;54;21059;-76
2023/11/04 02:37:32;;;;;;;4.23;4.03;;;;;;;;;;2609166;54;20450;-76
2023/11/04 02:39:58;;;;;;;4.20;3.83;;;;;;;;;;2609259;54;20502;-76
2023/11/04 02:42:24;;;;;;;4.07;3.77;;;;;;;;;;2607185;54;20446;-76
2023/11/04 02:44:51;;;;;;;4.37;4.07;;;;;;;;;;2608354;54;20456;-75
2023/11/04 02:47:17;;;;;;;4.20;4.00;;;;;;;;;;2607806;47;20431;-76
2023/11/04 02:49:43;;;;;;;3.90;3.70;;;;;;;;;;2609059;54;20566;-77
2023/11/04 02:52:09;;;;;;;4.00;3.80;;;;;;;;;;2611175;54;20969;-75
2023/11/04 02:54:36;;;;;;;3.97;3.77;;;;;;;;;;2609401;47;20498;-77
2023/11/04 02:57:03;;;;;;;4.40;4.10;;;;;;;;;;2607315;54;20431;-77
2023/11/04 02:59:30;;;;;;;4.50;3.80;;;;;;;;;;2607700;54;20463;-77
2023/11/04 03:01:56;;;;;;;3.73;3.53;;;;;;;;;;2609889;47;20450;-77
2023/11/04 03:04:24;;;;;;;6.57;3.73;;;;;;;;;;2607227;54;20412;-76
2023/11/04 03:06:50;;;;;;;3.73;3.53;;;;;;;;;;2608248;54;20451;-78
2023/11/04 03:09:16;;;;;;;3.80;3.60;;;;;;;;;;2608674;47;20978;-77
2023/11/04 03:11:42;;;;;;;4.40;4.00;;;;;;;;;;2607062;47;20515;-74
2023/11/04 03:14:09;;;;;;;4.07;3.67;;;;;;;;;;2604552;54;20551;-74
2023/11/04 03:16:35;;;;;;;4.13;3.93;;;;;;;;;;2606705;47;20427;-75
2023/11/04 03:19:01;;;;;;;4.20;3.80;;;;;;;;;;2607361;54;20538;-73
2023/11/04 03:21:26;;;;;;;3.83;3.60;;;;;;;;;;2607588;39;20808;-73
2023/11/04 03:23:52;;;;;;;4.07;3.87;;;;;;;;;;2606870;54;20410;-74
2023/11/04 03:26:19;;;;;;;4.57;4.37;;;;;;;;;;2607175;54;21121;-74
2023/11/04 03:28:45;;;;;;;4.20;4.00;;;;;;;;;;2605881;54;20419;-74
2023/11/04 03:31:11;;;;;;;4.20;3.90;;;;;;;;;;2610035;54;20422;-74
2023/11/04 03:33:38;;;;;;;4.00;3.70;;;;;;;;;;2607333;54;20408;-75
2023/11/04 03:36:04;;;;;;;4.00;3.80;;;;;;;;;;2605832;47;21092;-73
2023/11/04 03:38:30;;;;;;;3.73;3.43;;;;;;;;;;2606882;54;20407;-75
2023/11/04 03:40:56;;;;;;;3.80;3.60;;;;;;;;;;2606955;54;20423;-74
2023/11/04 03:43:22;;;;;;;3.67;3.47;;;;;;;;;;2605219;47;20473;-74
2023/11/04 03:45:49;;;;;;;3.93;3.67;;;;;;;;;;2606845;47;20432;-75
2023/11/04 03:48:15;;;;;;;3.60;3.40;;;;;;;;;;2608228;54;20989;-75
2023/11/04 03:50:41;;;;;;;5.60;5.10;;;;;;;;;;2607378;51;20519;-75
2023/11/04 03:53:07;;;;;;;3.50;3.30;;;;;;;;;;2608197;54;20415;-75
2023/11/04 03:55:33;;;;;;;4.07;3.87;;;;;;;;;;2608447;54;20445;-73
2023/11/04 03:57:59;;;;;;;4.03;3.73;;;;;;;;;;2607728;31;20931;-74
2023/11/04 04:00:25;;;;;;;3.40;3.20;;;;;;;;;;2607131;54;20441;-74
2023/11/04 04:02:51;;;;;;;5.30;3.33;;;;;;;;;;2607788;39;20622;-74
2023/11/04 04:05:17;;;;;;;3.77;3.57;;;;;;;;;;2607712;54;20434;-73
2023/11/04 04:07:43;;;;;;;3.50;3.20;;;;;;;;;;2607669;54;20403;-74
2023/11/04 04:10:10;;;;;;;4.80;4.30;;;;;;;;;;2607822;46;20441;-73
2023/11/04 04:12:36;;;;;;;3.40;3.20;;;;;;;;;;2606396;39;20517;-74
2023/11/04 04:15:02;;;;;;;4.17;3.87;;;;;;;;;;2607332;54;20789;-76
2023/11/04 04:17:28;;;;;;;3.30;3.10;;;;;;;;;;2607709;54;20432;-74
2023/11/04 04:19:54;;;;;;;3.70;3.50;;;;;;;;;;2607345;47;20890;-73
2023/11/04 04:22:20;;;;;;;3.80;3.60;;;;;;;;;;2609084;47;21064;-76
2023/11/04 04:24:46;;;;;;;4.60;4.30;;;;;;;;;;2609696;54;20415;-74
2023/11/04 04:27:12;;;;;;;4.17;3.93;;;;;;;;;;2609263;54;20404;-77
2023/11/04 04:29:38;;;;;;;4.20;3.90;;;;;;;;;;2607059;46;20431;-77
2023/11/04 04:32:04;;;;;;;3.60;3.40;;;;;;;;;;2608805;54;20423;-76
2023/11/04 04:34:30;;;;;;;3.77;3.50;;;;;;;;;;2608821;47;20566;-76
2023/11/04 04:36:58;;;;;;;4.40;4.10;;;;;;;;;;2609606;54;20555;-77
2023/11/04 04:39:24;;;;;;;3.80;3.60;;;;;;;;;;2608408;54;20554;-76
2023/11/04 04:41:50;;;;;;;3.73;3.53;;;;;;;;;;2609005;54;20430;-77
2023/11/04 04:44:16;;;;;;;4.03;3.83;;;;;;;;;;2608635;54;20406;-78
2023/11/04 04:46:42;;;;;;;4.27;3.87;;;;;;;;;;2609210;54;20402;-76
2023/11/04 04:49:09;;;;;;;4.33;4.03;;;;;;;;;;2608771;47;20964;-77
2023/11/04 04:51:35;;;;;;;4.10;3.87;;;;;;;;;;2609269;39;20687;-76
2023/11/04 04:54:03;;;;;;;4.40;4.10;;;;;;;;;;2610743;54;20999;-76
2023/11/04 04:56:29;;;;;;;3.80;3.60;;;;;;;;;;2612041;39;20829;-76
2023/11/04 04:58:55;;;;;;;3.67;3.37;;;;;;;;;;2610043;47;20465;-76
2023/11/04 05:01:22;;;;;;;4.47;3.40;;;;;;;;;;2610645;54;20462;-76
2023/11/04 05:03:48;;;;;;;3.60;3.30;;;;;;;;;;2610807;54;21286;-75
2023/11/04 05:06:14;;;;;;;3.80;3.50;;;;;;;;;;2610320;54;20432;-76
2023/11/04 05:08:41;;;;;;;3.40;3.20;;;;;;;;;;2611980;54;20970;-75
2023/11/04 05:11:08;;;;;;;4.00;3.70;;;;;;;;;;2610664;54;20456;-75
2023/11/04 05:13:35;;;;;;;3.37;3.17;;;;;;;;;;2611425;54;20421;-74
2023/11/04 05:16:01;;;;;;;3.90;3.60;;;;;;;;;;2608321;54;20526;-76
2023/11/04 05:18:27;;;;;;;4.17;3.87;;;;;;;;;;2611149;54;20432;-75
2023/11/04 05:20:53;;;;;;;3.37;3.17;;;;;;;;;;2609769;54;21008;-74
2023/11/04 05:23:19;;;;;;;3.50;3.30;;;;;;;;;;2609940;54;20424;-75
2023/11/04 05:25:45;;;;;;;4.50;4.10;;;;;;;;;;2609395;54;20443;-75
2023/11/04 05:28:11;;;;;;;3.90;3.60;;;;;;;;;;2610735;54;20524;-75
2023/11/04 05:30:37;;;;;;;3.97;3.57;;;;;;;;;;2608499;54;20411;-74
2023/11/04 05:33:06;;;;;;;4.73;4.30;;;;;;;;;;2610401;54;20436;-75
2023/11/04 05:35:32;;;;;;;3.43;3.03;;;;;;;;;;2609620;54;20803;-75
2023/11/04 05:37:59;;;;;;;3.43;3.23;;;;;;;;;;2610306;46;20445;-75
2023/11/04 05:40:25;;;;;;;3.90;3.70;;;;;;;;;;2610079;54;20559;-75
2023/11/04 05:42:51;;;;;;;4.40;4.00;;;;;;;;;;2608978;54;20419;-75
2023/11/04 05:45:17;;;;;;;3.70;3.37;;;;;;;;;;2609173;54;20438;-75
2023/11/04 05:47:45;;;;;;;3.90;3.67;;;;;;;;;;2610524;54;20415;-75
2023/11/04 05:50:12;;;;;;;4.53;3.60;;;;;;;;;;2610461;54;20429;-76
2023/11/04 05:52:38;;;;;;;3.97;3.40;;;;;;;;;;2611217;39;20903;-75
2023/11/04 05:55:05;;;;;;;4.30;3.93;;;;;;;;;;2610136;49;20430;-75
2023/11/04 05:57:31;;;;;;;4.20;3.90;;;;;;;;;;2608939;54;20435;-75
2023/11/04 05:59:57;;;;;;;4.10;3.90;;;;;;;;;;2609643;46;20623;-75
2023/11/04 06:02:23;;;;;;;3.40;3.20;;;;;;;;;;2609767;54;20446;-76
2023/11/04 06:04:49;;;;;;;4.23;3.93;;;;;;;;;;2609376;46;20422;-75
2023/11/04 06:07:15;;;;;;;3.90;3.70;;;;;;;;;;2610770;54;20980;-75
2023/11/04 06:09:43;;;;;;;3.80;3.40;;;;;;;;;;2609749;47;20445;-75
2023/11/04 06:12:09;;;;;;;5.27;4.87;;;;;;;;;;2609941;54;20398;-76
2023/11/04 06:14:35;;;;;;;3.57;3.37;;;;;;;;;;2609871;54;20532;-75
2023/11/04 06:17:03;;;;;;;4.13;3.83;;;;;;;;;;2608043;54;20493;-75
2023/11/04 06:19:29;;;;;;;4.83;3.43;;;;;;;;;;2611122;39;20779;-76
2023/11/04 06:21:56;;;;;;;3.47;3.20;;;;;;;;;;2611124;54;20495;-75
2023/11/04 06:24:22;;;;;;;3.73;3.53;;;;;;;;;;2610952;47;20958;-75
2023/11/04 06:26:47;;;;;;;3.30;3.10;;;;;;;;;;2611130;54;20441;-74
2023/11/04 06:29:16;;;;;;;3.20;3.00;;;;;;;;;;2609387;47;21335;-74
2023/11/04 06:31:42;;;;;;;3.60;3.40;;;;;;;;;;2609678;39;20859;-75
2023/11/04 06:34:08;;;;;;;3.63;3.43;;;;;;;;;;2612398;54;20475;-76
2023/11/04 06:36:34;;;;;;;3.83;3.50;;;;;;;;;;2611841;54;20430;-75
2023/11/04 06:39:00;;;;;;;3.40;3.20;;;;;;;;;;2611860;54;20431;-74
2023/11/04 06:41:26;;;;;;;3.10;2.90;;;;;;;;;;2610401;54;20435;-78
2023/11/04 06:43:54;;;;;;;3.30;3.10;;;;;;;;;;2610270;54;20506;-74
2023/11/04 06:46:20;;;;;;;3.70;3.50;;;;;;;;;;2607470;54;20442;-74
2023/11/04 06:48:46;;;;;;;3.40;3.20;;;;;;;;;;2610020;54;20418;-73
2023/11/04 06:51:17;;;;;;;3.43;3.23;;;;;;;;;;2610660;54;20921;-73
2023/11/04 06:53:43;;;;;;;4.33;4.07;;;;;;;;;;2609241;54;20419;-73
2023/11/04 06:56:09;;;;;;;3.10;2.90;;;;;;;;;;2610802;54;21004;-74
2023/11/04 06:58:35;;;;;;;3.67;3.37;;;;;;;;;;2610248;39;20893;-75
2023/11/04 07:01:02;;;;;;;3.57;3.27;;;;;;;;;;2608282;46;20590;-73
2023/11/04 07:03:29;;;;;;;3.50;3.30;;;;;;;;;;2606608;54;20436;-74
2023/11/04 07:05:56;;;;;;;3.20;3.00;;;;;;;;;;2607185;54;20469;-75
2023/11/04 07:08:22;;;;;;;3.40;3.10;;;;;;;;;;2606727;54;20880;-73
2023/11/04 07:10:48;;;;;;;3.23;3.03;;;;;;;;;;2609409;54;20408;-74
2023/11/04 07:13:15;;;;;;;3.90;3.03;;;;;;;;;;2607652;54;20949;-75
2023/11/04 07:15:43;;;;;;;4.57;4.33;;;;;;;;;;2608720;47;20412;-75
2023/11/04 07:18:12;;;;;;;3.80;3.50;;;;;;;;;;2609919;54;20403;-73
2023/11/04 07:20:39;;;;;;;4.63;4.20;;;;;;;;;;2611411;47;20965;-73
2023/11/04 07:23:07;;;;;;;3.60;3.40;;;;;;;;;;2608173;47;20419;-72
2023/11/04 07:25:34;;;;;;;2.93;2.73;;;;;;;;;;2608234;54;20583;-74
2023/11/04 07:28:00;;;;;;;3.93;3.47;;;;;;;;;;2609153;31;20865;-74
2023/11/04 07:30:26;;;;;;;3.60;3.30;;;;;;;;;;2608940;54;20473;-73
2023/11/04 07:32:53;;;;;;;3.50;3.30;;;;;;;;;;2606619;54;20435;-75
2023/11/04 07:35:19;;;;;;;3.63;3.40;;;;;;;;;;2609276;46;20438;-74
2023/11/04 07:37:45;;;;;;;3.23;3.03;;;;;;;;;;2611376;46;21007;-75
2023/11/04 07:40:13;;;;;;;4.00;3.60;;;;;;;;;;2611611;54;20411;-75
2023/11/04 07:42:40;;;;;;;3.90;3.53;;;;;;;;;;2612530;54;20687;-74
2023/11/04 07:45:09;;;;;;;3.53;3.10;;;;;;;;;;2611385;54;20966;-75
2023/11/04 07:47:35;;;;;;;3.70;3.50;;;;;;;;;;2612337;54;21029;-74
2023/11/04 07:50:01;;;;;;;3.23;3.00;;;;;;;;;;2611294;39;20861;-74
2023/11/04 07:52:27;;;;;;;3.27;3.07;;;;;;;;;;2612071;54;20422;-78
2023/11/04 07:54:53;;;;;;;3.33;3.13;;;;;;;;;;2609203;54;20400;-73
2023/11/04 07:57:19;;;;;;;4.03;3.30;;;;;;;;;;2611782;54;20450;-73
2023/11/04 07:59:45;;;;;;;3.90;3.60;;;;;;;;;;2609698;54;20458;-74
2023/11/04 08:02:11;;;;;;;3.67;3.30;;;;;;;;;;2609172;39;20920;-75
2023/11/04 08:04:39;;;;;;;3.80;3.50;;;;;;;;;;2607824;54;20419;-72
2023/11/04 08:07:05;;;;;;;4.07;3.23;;;;;;;;;;2610361;46;20431;-73
2023/11/04 08:09:31;;;;;;;5.90;3.40;;;;;;;;;;2609694;49;20478;-74
2023/11/04 08:11:57;;;;;;;3.70;3.50;;;;;;;;;;2609533;47;20439;-73
2023/11/04 08:14:24;;;;;;;4.30;3.90;;;;;;;;;;2609158;54;21029;-75
2023/11/04 08:16:50;;;;;;;4.33;3.30;;;;;;;;;;2606692;54;21425;-73
2023/11/04 08:19:16;;;;;;;3.73;3.53;;;;;;;;;;2607165;54;20391;-75
2023/11/04 08:21:42;;;;;;;4.03;3.70;;;;;;;;;;2607739;54;20957;-73
2023/11/04 08:24:08;;;;;;;4.13;3.83;;;;;;;;;;2609187;54;20454;-74
2023/11/04 08:26:39;;;;;;;3.97;3.67;;;;;;;;;;2609333;46;20415;-73
2023/11/04 08:29:05;;;;;;;4.50;4.20;;;;;;;;;;2611450;54;20445;-73
2023/11/04 08:31:31;;;;;;;3.80;3.60;;;;;;;;;;2608341;47;20456;-76
2023/11/04 08:33:57;;;;;;;3.63;3.43;;;;;;;;;;2609863;54;20411;-73
2023/11/04 08:36:24;;;;;;;2.70;2.53;;;;;;;;;;2607904;47;20419;-73
2023/11/04 08:38:50;;;;;;;3.20;3.00;;;;;;;;;;2610493;54;20438;-74
2023/11/04 08:41:15;;;;;;;3.30;3.10;;;;;;;;;;2611638;54;20415;-73
2023/11/04 08:43:41;;;;;;;3.17;2.97;;;;;;;;;;2610388;54;20422;-74
2023/11/04 08:46:07;;;;;;;2.80;2.60;;;;;;;;;;2607054;54;20558;-74
2023/11/04 08:48:34;;;;;;;4.10;3.80;;;;;;;;;;2610704;39;20811;-74
2023/11/04 08:51:00;;;;;;;3.03;2.83;;;;;;;;;;2607465;54;20403;-75
2023/11/04 08:53:26;;;;;;;3.90;3.60;;;;;;;;;;2606716;54;20454;-73
2023/11/04 08:55:52;;;;;;;3.10;2.90;;;;;;;;;;2607700;46;20462;-72
2023/11/04 08:58:18;;;;;;;7.40;3.40;;;;;;;;;;2607705;39;20738;-73
2023/11/04 09:00:44;;;;;;;3.50;3.30;;;;;;;;;;2606400;54;20455;-73
2023/11/04 09:03:10;;;;;;;3.50;3.30;;;;;;;;;;2607913;39;20847;-74
2023/11/04 09:05:36;;;;;;;3.67;3.47;;;;;;;;;;2608279;39;20778;-74
2023/11/04 09:08:02;;;;;;;3.97;3.57;;;;;;;;;;2608254;51;20390;-74
2023/11/04 09:10:28;;;;;;;3.50;3.30;;;;;;;;;;2608008;54;21108;-74
2023/11/04 09:12:55;;;;;;;4.77;3.60;;;;;;;;;;2608206;54;20431;-74
2023/11/04 09:15:21;;;;;;;3.27;3.07;;;;;;;;;;2607665;39;20881;-74
2023/11/04 09:17:47;;;;;;;3.37;3.10;;;;;;;;;;2608184;46;20413;-74
2023/11/04 09:20:14;;;;;;;3.50;3.30;;;;;;;;;;2608498;54;20426;-74
2023/11/04 09:22:40;;;;;;;5.30;3.67;;;;;;;;;;2611596;54;20404;-75
2023/11/04 09:25:09;;;;;;;4.20;3.90;;;;;;;;;;2611231;54;20887;-73
2023/11/04 09:27:35;;;;;;;5.87;3.47;;;;;;;;;;2611320;46;20965;-73
2023/11/04 09:30:01;;;;;;;3.93;3.70;;;;;;;;;;2610776;39;20825;-73
2023/11/04 09:32:28;;;;;;;5.50;3.97;;;;;;;;;;2611547;54;20427;-74
2023/11/04 09:34:54;;;;;;;4.20;3.90;;;;;;;;;;2611134;54;20405;-74
2023/11/04 09:37:21;;;;;;;3.97;3.67;;;;;;;;;;2609315;39;20879;-74
2023/11/04 09:39:47;;;;;;;4.30;4.10;;;;;;;;;;2610138;54;20403;-73
2023/11/04 09:42:14;;;;;;;3.80;3.60;;;;;;;;;;2609849;54;21080;-74
2023/11/04 09:44:40;;;;;;;3.80;3.60;;;;;;;;;;2611020;54;20428;-73
2023/11/04 09:47:07;;;;;;;3.70;3.50;;;;;;;;;;2609689;54;21049;-76
2023/11/04 09:49:33;;;;;;;3.90;3.70;;;;;;;;;;2606005;54;20946;-74
2023/11/04 09:52:00;;;;;;;4.20;3.80;;;;;;;;;;2608125;54;20893;-73
2023/11/04 09:54:28;;;;;;;4.23;4.03;;;;;;;;;;2610078;39;20811;-75
2023/11/04 09:56:56;;;;;;;5.80;4.67;;;;;;;;;;2610544;54;20407;-73
2023/11/04 09:59:25;;;;;;;4.20;4.00;;;;;;;;;;2610612;54;20985;-75
2023/11/04 10:01:51;;;;;;;3.80;3.60;;;;;;;;;;2606173;54;20455;-74
2023/11/04 10:04:17;;;;;;;3.93;3.73;;;;;;;;;;2608636;39;20756;-76
2023/11/04 10:06:45;;;;;;;5.50;3.90;;;;;;;;;;2606784;54;20428;-75
2023/11/04 10:09:11;;;;;;;4.30;4.10;;;;;;;;;;2607226;54;20424;-74
2023/11/04 10:11:37;;;;;;;4.43;4.23;;;;;;;;;;2605300;47;21087;-74
2023/11/04 10:14:05;;;;;;;4.80;4.50;;;;;;;;;;2604545;54;20411;-73
2023/11/04 10:16:34;;;;;;;5.33;5.03;;;;;;;;;;2605825;54;20391;-74
2023/11/04 10:19:01;;;;;;;4.63;4.33;;;;;;;;;;2606661;39;21085;-74
2023/11/04 10:21:27;;;;;;;4.63;4.43;;;;;;;;;;2607162;54;21016;-75
2023/11/04 10:23:54;;;;;;;5.63;5.13;;;;;;;;;;2608139;54;20443;-73
2023/11/04 10:26:22;;;;;;;5.60;4.93;;;;;;;;;;2609613;54;20395;-74
2023/11/04 10:28:49;;;;;;;4.67;4.47;;;;;;;;;;2610211;54;20427;-73
2023/11/04 10:31:17;;;;;;;4.87;4.57;;;;;;;;;;2609582;54;20399;-73
2023/11/04 10:33:43;;;;;;;5.03;4.63;;;;;;;;;;2609005;39;20819;-74
2023/11/04 10:36:11;;;;;;;5.60;5.20;;;;;;;;;;2608811;39;20797;-74
2023/11/04 10:38:38;;;;;;;4.93;4.70;;;;;;;;;;2608457;54;20434;-74
2023/11/04 10:41:06;;;;;;;5.10;4.80;;;;;;;;;;2606140;54;20421;-74
2023/11/04 10:43:38;;;;;;;4.90;4.50;;;;;;;;;;2608323;54;20431;-75
2023/11/04 10:46:08;;;;;;;5.47;5.07;;;;;;;;;;2607186;54;20445;-74
2023/11/04 10:48:40;;;;;;;5.30;5.00;;;;;;;;;;2608538;39;20779;-74
2023/11/04 10:51:27;;;;;;;5.23;4.83;;;;;;;;;;2609664;54;20446;-74
2023/11/04 10:53:57;;;;;;;4.63;4.33;;;;;;;;;;2608729;39;20751;-75
2023/11/04 10:56:31;;;;;;;4.90;4.60;;;;;;;;;;2608992;47;20408;-74
2023/11/04 10:58:57;;;;;;;5.63;4.70;;;;;;;;;;2610418;54;20399;-74
2023/11/04 11:01:24;;;;;;;4.97;4.67;;;;;;;;;;2608730;54;21006;-75
2023/11/04 11:03:51;;;;;;;4.93;4.73;;;;;;;;;;2609442;54;20834;-74
2023/11/04 11:06:18;;;;;;;5.20;4.83;;;;;;;;;;2609058;54;20408;-74
2023/11/04 11:08:46;;;;;;;5.30;5.00;;;;;;;;;;2608064;54;20404;-74
2023/11/04 11:11:19;;;;;;;4.87;4.57;;;;;;;;;;2607289;54;20375;-74
2023/11/04 11:13:48;;;;;;;5.27;4.97;;;;;;;;;;2607615;54;20384;-73
2023/11/04 11:16:14;;;;;;;5.80;5.30;;;;;;;;;;2607569;54;20447;-74
2023/11/04 11:18:40;;;;;;;5.17;4.67;;;;;;;;;;2608124;54;20446;-75
2023/11/04 11:21:10;;;;;;;5.70;5.20;;;;;;;;;;2607223;54;20407;-74
2023/11/04 11:23:37;;;;;;;5.53;5.13;;;;;;;;;;2607683;54;20415;-75
2023/11/04 11:26:03;;;;;;;4.70;4.50;;;;;;;;;;2607449;54;20404;-74
2023/11/04 11:28:35;;;;;;;5.30;4.90;;;;;;;;;;2607562;54;20367;-73
2023/11/04 11:31:01;;;;;;;5.07;4.87;;;;;;;;;;2608029;54;20404;-74
2023/11/04 11:33:28;;;;;;;8.50;5.37;;;;;;;;;;2608052;54;20930;-73
2023/11/04 11:35:58;;;;;;;7.30;5.17;;;;;;;;;;2609178;54;20519;-74
2023/11/04 11:38:25;;;;;;;5.50;5.20;;;;;;;;;;2609787;47;20547;-74
2023/11/04 11:40:51;;;;;;;6.67;4.53;;;;;;;;;;2610403;54;20395;-74
2023/11/04 11:43:21;;;;;;;4.87;4.57;;;;;;;;;;2611206;54;20387;-76
2023/11/04 11:45:50;;;;;;;4.53;4.23;;;;;;;;;;2610611;47;20989;-76
2023/11/04 11:48:16;;;;;;;4.13;3.83;;;;;;;;;;2612152;39;21155;-75
2023/11/04 11:50:44;;;;;;;4.73;4.40;;;;;;;;;;2611865;54;20419;-75
2023/11/04 11:53:10;;;;;;;4.47;4.03;;;;;;;;;;2608112;54;21017;-75
2023/11/04 11:55:38;;;;;;;4.50;4.20;;;;;;;;;;2607490;47;20437;-75
2023/11/04 11:58:05;;;;;;;4.53;3.63;;;;;;;;;;2606928;54;21001;-76
2023/11/04 12:00:31;;;;;;;4.67;4.27;;;;;;;;;;2608954;54;20451;-75
2023/11/04 12:02:57;;;;;;;8.43;4.13;;;;;;;;;;2608593;54;20419;-75
2023/11/04 12:05:23;;;;;;;6.37;4.23;;;;;;;;;;2608809;47;20408;-75
2023/11/04 12:07:52;;;;;;;3.80;3.30;;;;;;;;;;2610419;39;20847;-74
2023/11/04 12:10:18;;;;;;;6.77;4.10;;;;;;;;;;2609253;54;20428;-75
2023/11/04 12:12:45;;;;;;;7.63;4.03;;;;;;;;;;2608097;46;20427;-75
2023/11/04 12:15:12;;;;;;;4.07;3.67;;;;;;;;;;2608726;39;20763;-75
2023/11/04 12:17:38;;;;;;;3.90;3.60;;;;;;;;;;2609729;54;20422;-75
2023/11/04 12:20:11;;;;;;;4.10;3.80;;;;;;;;;;2610169;54;20424;-75
2023/11/04 12:22:37;;;;;;;4.30;3.23;;;;;;;;;;2610492;47;20973;-74
2023/11/04 12:25:05;;;;;;;3.50;3.30;;;;;;;;;;2609903;54;20418;-75
2023/11/04 12:27:31;;;;;;;3.83;3.53;;;;;;;;;;2612012;46;20442;-75
2023/11/04 12:29:58;;;;;;;3.17;2.97;;;;;;;;;;2614598;39;20909;-75
2023/11/04 12:32:25;;;;;;;6.53;3.20;;;;;;;;;;2612346;54;20404;-75
2023/11/04 12:34:57;;;;;;;6.57;3.60;;;;;;;;;;2613083;47;20417;-75
2023/11/04 12:37:27;;;;;;;2.83;2.63;;;;;;;;;;2614008;54;21339;-75
2023/11/04 12:39:53;;;;;;;3.37;3.07;;;;;;;;;;2613297;54;20426;-76
2023/11/04 12:42:19;;;;;;;3.80;2.60;;;;;;;;;;2613221;47;20435;-76
2023/11/04 12:44:45;;;;;;;3.63;2.53;;;;;;;;;;2613648;47;20515;-75
2023/11/04 12:47:12;;;;;;;2.77;2.57;;;;;;;;;;2614102;46;21228;-76
2023/11/04 12:49:39;;;;;;;2.97;2.77;;;;;;;;;;2613791;54;20432;-76
2023/11/04 12:52:08;;;;;;;3.03;2.63;;;;;;;;;;2613756;54;21423;-75
2023/11/04 12:54:34;;;;;;;5.47;2.37;;;;;;;;;;2610108;54;20973;-74
2023/11/04 12:57:01;;;;;;;2.77;2.40;;;;;;;;;;2609494;46;20419;-75
2023/11/04 12:59:27;;;;;;;2.53;2.33;;;;;;;;;;2610132;54;20515;-75
2023/11/04 13:01:53;;;;;;;2.87;2.03;;;;;;;;;;2611165;54;20418;-76
2023/11/04 13:04:19;;;;;;;2.60;2.40;;;;;;;;;;2612269;54;20435;-75
2023/11/04 13:06:51;;;;;;;2.67;2.20;;;;;;;;;;2611010;47;20948;-74
2023/11/04 13:09:19;;;;;;;2.97;2.67;;;;;;;;;;2612579;54;20419;-75
2023/11/04 13:11:46;;;;;;;3.33;2.30;;;;;;;;;;2610559;54;20495;-75
2023/11/04 13:14:12;;;;;;;4.00;2.00;;;;;;;;;;2613189;54;20547;-75
2023/11/04 13:16:41;;;;;;;2.40;2.20;;;;;;;;;;2612405;54;20427;-75
2023/11/04 13:19:07;;;;;;;2.33;2.13;;;;;;;;;;2612704;54;20422;-76
2023/11/04 13:21:33;;;;;;;2.50;2.30;;;;;;;;;;2610081;54;20934;-75
2023/11/04 13:23:59;;;;;;;4.10;2.37;;;;;;;;;;2610273;54;20994;-75
2023/11/04 13:26:26;;;;;;;2.83;2.00;;;;;;;;;;2610488;54;20394;-75
2023/11/04 13:28:52;;;;;;;3.17;1.53;;;;;;;;;;2610394;54;20423;-75
2023/11/04 13:31:19;;;;;;;2.83;1.80;;;;;;;;;;2610310;54;20458;-76
2023/11/04 13:33:45;;;;;;;3.20;1.80;;;;;;;;;;2609217;46;20450;-76
2023/11/04 13:36:12;;;;;;;2.90;1.57;;;;;;;;;;2609669;54;23132;-76
2023/11/04 13:38:38;;;;;;;6.40;1.53;;;;;;;;;;2609374;54;20498;-75
2023/11/04 13:41:04;;;;;;;4.00;1.87;;;;;;;;;;2609551;54;20519;-75
2023/11/04 13:43:30;;;;;;;2.20;1.60;;;;;;;;;;2608346;47;21420;-74
2023/11/04 13:45:57;;;;;;;1.80;1.47;;;;;;;;;;2608728;54;21179;-75
2023/11/04 13:48:23;;;;;;;2.40;1.80;;;;;;;;;;2609936;54;20401;-75
2023/11/04 13:50:51;;;;;;;1.60;1.10;;;;;;;;;;2609434;54;20408;-75
2023/11/04 13:53:17;;;;;;;2.77;1.57;;;;;;;;;;2609146;54;20419;-75
2023/11/04 13:55:44;;;;;;;2.20;1.37;;;;;;;;;;2608918;47;20422;-75
2023/11/04 13:58:12;;;;;;;3.27;1.70;;;;;;;;;;2606782;54;20934;-75
2023/11/04 14:00:38;;;;;;;2.13;1.40;;;;;;;;;;2609460;31;21088;-75
2023/11/04 14:03:04;;;;;;;2.70;1.23;;;;;;;;;;2610064;54;20466;-73
2023/11/04 14:05:31;;;;;;;2.30;1.67;;;;;;;;;;2609897;54;20411;-74
2023/11/04 14:07:57;;;;;;;3.27;1.93;;;;;;;;;;2612706;39;20791;-74
2023/11/04 14:10:23;;;;;;;2.17;1.60;;;;;;;;;;2611266;54;20422;-74
2023/11/04 14:12:49;;;;;;;1.80;1.53;;;;;;;;;;2611571;54;21004;-74
2023/11/04 14:15:18;;;;;;;2.60;1.63;;;;;;;;;;2611652;54;20432;-73
2023/11/04 14:17:45;;;;;;;2.23;1.40;;;;;;;;;;2611986;31;20909;-73
2023/11/04 14:20:11;;;;;;;1.63;1.30;;;;;;;;;;2611769;54;20395;-73
2023/11/04 14:22:37;;;;;;;2.07;1.57;;;;;;;;;;2611524;54;21045;-73
2023/11/04 14:25:04;;;;;;;1.83;1.20;;;;;;;;;;2609377;54;20431;-73
2023/11/04 14:27:30;;;;;;;3.63;1.60;;;;;;;;;;2611158;54;20435;-74
2023/11/04 14:29:57;;;;;;;1.93;1.17;;;;;;;;;;2610574;54;20431;-73
2023/11/04 14:32:23;;;;;;;2.80;1.23;;;;;;;;;;2610344;54;20412;-74
2023/11/04 14:34:49;;;;;;;1.43;1.07;;;;;;;;;;2611504;54;20423;-74
2023/11/04 14:37:16;;;;;;;3.10;1.53;;;;;;;;;;2611256;54;20431;-73
2023/11/04 14:39:43;;;;;;;2.37;1.50;;;;;;;;;;2611282;54;20458;-74